Parrot, Kentucky
Current Conditions -  °F | °C
As of 3:15 PM on Sunday 25 Jan 2015 (Local Time) from KI39 Reporting Station
Overcast Overcast  
Wind Chill: 50°   Ceiling: 11000
Heat Index: 50°   Visibility: 10mi
Dew Point: 34°   Wind: 7mph
Humidity: 54%   Direction: 200°SSW
Pressure: 29.63"   Gusts: NA
Location:  37.4446°N, 84.0227°W
Report Text: KI39 252015Z AUTO 20006KT 10SM SCT070 SCT085 OVC110 10/01 A2963 RMK AO2
Loading
Personal Weather Stations






























Interactive Weather Map New forecast layout! Learn more

10-Day Weather Forecast

Advertisements
Track Severe Weather on mobile